Harbor Beach, Michigan
Current Conditions -  °F | °C
As of 12:15 PM on Thursday 18 Dec 2014 (Local Time) from KBAX Reporting Station
Overcast Overcast  
Wind Chill: 16°   Ceiling: 1100
Heat Index: 27°   Visibility: 10mi
Dew Point: 24°   Wind: 12mph
Humidity: 90%   Direction: 300°WNW
Pressure: 30.18"   Gusts: NA
Location:  43.84°N, 82.65°W
Report Text: KBAX 181715Z AUTO 30010KT 10SM BKN011 OVC016 M03/M04 A3018 RMK AO2 T10301044
Loading
Personal Weather Stations






























Interactive Weather Map New forecast layout! Learn more

10-Day Weather Forecast

Advertisements
Track Severe Weather on mobile